sensor_id;sensor_type;location;lat;lon;timestamp;temperature;humidity
5210;DHT22;2624;48.048;11.706;2023-06-22T00:04:57;24.50;96.10
5210;DHT22;2624;48.048;11.706;2023-06-22T00:09:59;24.50;96.00
5210;DHT22;2624;48.048;11.706;2023-06-22T00:15:03;23.50;98.00
5210;DHT22;2624;48.048;11.706;2023-06-22T00:20:07;23.30;98.10
5210;DHT22;2624;48.048;11.706;2023-06-22T00:25:11;23.50;97.90
5210;DHT22;2624;48.048;11.706;2023-06-22T00:30:15;23.80;97.30
5210;DHT22;2624;48.048;11.706;2023-06-22T00:35:17;24.00;96.70
5210;DHT22;2624;48.048;11.706;2023-06-22T00:40:19;24.00;96.90
5210;DHT22;2624;48.048;11.706;2023-06-22T00:45:23;23.50;97.70
5210;DHT22;2624;48.048;11.706;2023-06-22T00:50:28;23.60;97.60
5210;DHT22;2624;48.048;11.706;2023-06-22T00:55:35;23.60;97.80
5210;DHT22;2624;48.048;11.706;2023-06-22T01:00:41;23.70;97.40
5210;DHT22;2624;48.048;11.706;2023-06-22T01:05:43;24.00;97.00
5210;DHT22;2624;48.048;11.706;2023-06-22T01:10:51;23.90;97.10
5210;DHT22;2624;48.048;11.706;2023-06-22T01:15:59;23.80;97.50
5210;DHT22;2624;48.048;11.706;2023-06-22T01:21:02;23.50;98.10
5210;DHT22;2624;48.048;11.706;2023-06-22T01:26:17;22.70;99.60
5210;DHT22;2624;48.048;11.706;2023-06-22T01:31:24;22.00;99.90
5210;DHT22;2624;48.048;11.706;2023-06-22T01:36:27;21.80;99.90
5210;DHT22;2624;48.048;11.706;2023-06-22T01:41:33;22.80;99.20
5210;DHT22;2624;48.048;11.706;2023-06-22T01:46:37;22.80;98.90
5210;DHT22;2624;48.048;11.706;2023-06-22T01:51:39;22.60;99.30
5210;DHT22;2624;48.048;11.706;2023-06-22T01:56:41;22.30;99.90
5210;DHT22;2624;48.048;11.706;2023-06-22T02:01:51;21.90;99.90
5210;DHT22;2624;48.048;11.706;2023-06-22T02:06:58;21.80;99.90
5210;DHT22;2624;48.048;11.706;2023-06-22T02:12:00;21.60;99.90
5210;DHT22;2624;48.048;11.706;2023-06-22T02:17:07;21.80;99.90
5210;DHT22;2624;48.048;11.706;2023-06-22T02:22:10;21.50;99.90
5210;DHT22;2624;48.048;11.706;2023-06-22T02:27:13;21.80;99.90
5210;DHT22;2624;48.048;11.706;2023-06-22T02:32:16;21.60;99.90
5210;DHT22;2624;48.048;11.706;2023-06-22T02:37:18;21.50;99.90
5210;DHT22;2624;48.048;11.706;2023-06-22T02:42:20;21.30;99.90
5210;DHT22;2624;48.048;11.706;2023-06-22T02:47:23;21.20;99.90
5210;DHT22;2624;48.048;11.706;2023-06-22T02:52:25;22.40;99.90
5210;DHT22;2624;48.048;11.706;2023-06-22T02:57:27;22.60;99.90
5210;DHT22;2624;48.048;11.706;2023-06-22T03:02:30;22.60;99.90
5210;DHT22;2624;48.048;11.706;2023-06-22T03:07:31;22.40;99.90
5210;DHT22;2624;48.048;11.706;2023-06-22T03:12:33;21.80;99.90
5210;DHT22;2624;48.048;11.706;2023-06-22T03:17:37;21.10;99.90
5210;DHT22;2624;48.048;11.706;2023-06-22T03:22:40;21.90;99.90
5210;DHT22;2624;48.048;11.706;2023-06-22T03:27:43;22.20;99.90
5210;DHT22;2624;48.048;11.706;2023-06-22T03:32:46;21.70;99.90
5210;DHT22;2624;48.048;11.706;2023-06-22T03:37:48;22.20;99.90
5210;DHT22;2624;48.048;11.706;2023-06-22T03:42:50;21.30;99.90
5210;DHT22;2624;48.048;11.706;2023-06-22T03:47:53;21.50;99.90
5210;DHT22;2624;48.048;11.706;2023-06-22T03:52:55;21.90;99.90
5210;DHT22;2624;48.048;11.706;2023-06-22T03:57:56;21.80;99.90
5210;DHT22;2624;48.048;11.706;2023-06-22T04:03:00;21.40;99.90
5210;DHT22;2624;48.048;11.706;2023-06-22T04:08:02;21.20;99.90
5210;DHT22;2624;48.048;11.706;2023-06-22T04:13:03;21.70;99.90
5210;DHT22;2624;48.048;11.706;2023-06-22T04:18:07;22.10;99.90
5210;DHT22;2624;48.048;11.706;2023-06-22T04:23:08;22.20;99.90
5210;DHT22;2624;48.048;11.706;2023-06-22T04:28:10;22.20;99.90
5210;DHT22;2624;48.048;11.706;2023-06-22T04:33:14;22.00;99.90
5210;DHT22;2624;48.048;11.706;2023-06-22T04:38:17;21.60;99.90
5210;DHT22;2624;48.048;11.706;2023-06-22T04:43:18;21.60;99.90
5210;DHT22;2624;48.048;11.706;2023-06-22T04:48:21;21.60;99.90
5210;DHT22;2624;48.048;11.706;2023-06-22T04:53:23;22.30;99.90
5210;DHT22;2624;48.048;11.706;2023-06-22T04:58:26;21.90;99.90
5210;DHT22;2624;48.048;11.706;2023-06-22T05:03:30;21.70;99.90
5210;DHT22;2624;48.048;11.706;2023-06-22T05:08:32;21.60;99.90
5210;DHT22;2624;48.048;11.706;2023-06-22T05:13:33;21.30;99.90
5210;DHT22;2624;48.048;11.706;2023-06-22T05:18:36;21.20;99.90
5210;DHT22;2624;48.048;11.706;2023-06-22T05:23:38;21.10;99.90
5210;DHT22;2624;48.048;11.706;2023-06-22T05:28:40;21.20;99.90
5210;DHT22;2624;48.048;11.706;2023-06-22T05:33:43;21.40;99.90
5210;DHT22;2624;48.048;11.706;2023-06-22T05:38:45;21.30;99.90
5210;DHT22;2624;48.048;11.706;2023-06-22T05:43:47;21.60;99.90
5210;DHT22;2624;48.048;11.706;2023-06-22T05:48:50;21.50;99.90
5210;DHT22;2624;48.048;11.706;2023-06-22T05:53:52;21.40;99.90
5210;DHT22;2624;48.048;11.706;2023-06-22T05:58:54;21.50;99.90
5210;DHT22;2624;48.048;11.706;2023-06-22T06:03:57;21.50;99.90
5210;DHT22;2624;48.048;11.706;2023-06-22T06:08:59;21.60;99.90
5210;DHT22;2624;48.048;11.706;2023-06-22T06:14:00;21.80;99.90
5210;DHT22;2624;48.048;11.706;2023-06-22T06:19:03;21.80;99.90
5210;DHT22;2624;48.048;11.706;2023-06-22T06:24:05;22.00;99.90
5210;DHT22;2624;48.048;11.706;2023-06-22T06:29:07;22.10;99.90
5210;DHT22;2624;48.048;11.706;2023-06-22T06:34:10;22.10;99.90
5210;DHT22;2624;48.048;11.706;2023-06-22T06:39:12;22.00;99.90
5210;DHT22;2624;48.048;11.706;2023-06-22T06:44:14;22.20;99.90
5210;DHT22;2624;48.048;11.706;2023-06-22T06:49:17;22.20;99.90
5210;DHT22;2624;48.048;11.706;2023-06-22T06:54:19;22.50;99.90
5210;DHT22;2624;48.048;11.706;2023-06-22T06:59:21;22.50;99.90
5210;DHT22;2624;48.048;11.706;2023-06-22T07:04:24;22.70;99.90
5210;DHT22;2624;48.048;11.706;2023-06-22T07:09:26;22.80;99.90
5210;DHT22;2624;48.048;11.706;2023-06-22T07:14:27;22.80;99.90
5210;DHT22;2624;48.048;11.706;2023-06-22T07:19:32;22.90;99.90
5210;DHT22;2624;48.048;11.706;2023-06-22T07:24:34;22.90;99.90
5210;DHT22;2624;48.048;11.706;2023-06-22T07:29:36;23.00;99.90
5210;DHT22;2624;48.048;11.706;2023-06-22T07:34:41;23.20;99.90
5210;DHT22;2624;48.048;11.706;2023-06-22T07:39:43;23.40;99.90
5210;DHT22;2624;48.048;11.706;2023-06-22T07:44:45;23.30;99.90
5210;DHT22;2624;48.048;11.706;2023-06-22T07:49:48;23.60;99.90
5210;DHT22;2624;48.048;11.706;2023-06-22T07:54:50;23.70;99.90
5210;DHT22;2624;48.048;11.706;2023-06-22T07:59:52;23.80;99.90
5210;DHT22;2624;48.048;11.706;2023-06-22T08:04:55;24.00;99.90
5210;DHT22;2624;48.048;11.706;2023-06-22T08:09:56;24.10;99.90
5210;DHT22;2624;48.048;11.706;2023-06-22T08:14:58;24.40;99.90
5210;DHT22;2624;48.048;11.706;2023-06-22T08:20:01;24.70;99.90
5210;DHT22;2624;48.048;11.706;2023-06-22T08:25:10;24.90;99.90
5210;DHT22;2624;48.048;11.706;2023-06-22T08:30:12;24.70;99.90
5210;DHT22;2624;48.048;11.706;2023-06-22T08:35:15;24.70;99.90
5210;DHT22;2624;48.048;11.706;2023-06-22T08:40:17;24.90;99.90
5210;DHT22;2624;48.048;11.706;2023-06-22T08:45:20;25.00;99.90
5210;DHT22;2624;48.048;11.706;2023-06-22T08:50:23;25.30;99.90
5210;DHT22;2624;48.048;11.706;2023-06-22T08:55:25;25.50;99.90
5210;DHT22;2624;48.048;11.706;2023-06-22T09:00:26;26.00;99.90
5210;DHT22;2624;48.048;11.706;2023-06-22T09:05:31;25.40;99.90
5210;DHT22;2624;48.048;11.706;2023-06-22T09:10:32;26.00;99.90
5210;DHT22;2624;48.048;11.706;2023-06-22T09:15:34;26.10;99.90
5210;DHT22;2624;48.048;11.706;2023-06-22T09:20:37;26.40;99.90
5210;DHT22;2624;48.048;11.706;2023-06-22T09:25:39;26.00;99.90
5210;DHT22;2624;48.048;11.706;2023-06-22T09:30:43;26.00;99.90
5210;DHT22;2624;48.048;11.706;2023-06-22T09:35:46;26.40;99.90
5210;DHT22;2624;48.048;11.706;2023-06-22T09:40:48;26.50;99.90
5210;DHT22;2624;48.048;11.706;2023-06-22T09:45:50;26.70;99.90
5210;DHT22;2624;48.048;11.706;2023-06-22T09:50:53;27.20;99.50
5210;DHT22;2624;48.048;11.706;2023-06-22T09:55:55;27.60;98.00
5210;DHT22;2624;48.048;11.706;2023-06-22T10:00:57;27.10;99.10
5210;DHT22;2624;48.048;11.706;2023-06-22T10:06:01;27.00;99.20
5210;DHT22;2624;48.048;11.706;2023-06-22T10:11:03;28.00;98.50
5210;DHT22;2624;48.048;11.706;2023-06-22T10:16:05;28.10;97.80
5210;DHT22;2624;48.048;11.706;2023-06-22T10:21:08;28.50;97.70
5210;DHT22;2624;48.048;11.706;2023-06-22T10:26:10;28.20;96.70
5210;DHT22;2624;48.048;11.706;2023-06-22T10:31:12;28.10;97.10
5210;DHT22;2624;48.048;11.706;2023-06-22T10:36:15;27.70;97.90
5210;DHT22;2624;48.048;11.706;2023-06-22T10:41:17;28.60;96.10
5210;DHT22;2624;48.048;11.706;2023-06-22T10:46:19;28.50;96.70
5210;DHT22;2624;48.048;11.706;2023-06-22T10:51:22;29.40;94.50
5210;DHT22;2624;48.048;11.706;2023-06-22T10:56:24;29.30;94.90
5210;DHT22;2624;48.048;11.706;2023-06-22T11:01:26;30.00;91.50
5210;DHT22;2624;48.048;11.706;2023-06-22T11:06:29;30.50;92.10
5210;DHT22;2624;48.048;11.706;2023-06-22T11:11:32;30.70;90.70
5210;DHT22;2624;48.048;11.706;2023-06-22T11:16:34;30.50;88.60
5210;DHT22;2624;48.048;11.706;2023-06-22T11:21:37;30.40;91.90
5210;DHT22;2624;48.048;11.706;2023-06-22T11:26:39;30.30;91.70
5210;DHT22;2624;48.048;11.706;2023-06-22T11:31:41;30.20;91.70
5210;DHT22;2624;48.048;11.706;2023-06-22T11:36:45;30.30;91.00
5210;DHT22;2624;48.048;11.706;2023-06-22T11:41:48;30.40;92.00
5210;DHT22;2624;48.048;11.706;2023-06-22T11:46:50;30.70;92.70
5210;DHT22;2624;48.048;11.706;2023-06-22T11:51:53;31.10;91.70
5210;DHT22;2624;48.048;11.706;2023-06-22T11:56:55;30.90;91.80
5210;DHT22;2624;48.048;11.706;2023-06-22T12:01:57;31.30;90.00
5210;DHT22;2624;48.048;11.706;2023-06-22T12:07:01;31.60;85.70
5210;DHT22;2624;48.048;11.706;2023-06-22T12:12:03;31.20;89.60
5210;DHT22;2624;48.048;11.706;2023-06-22T12:17:05;31.30;89.30
5210;DHT22;2624;48.048;11.706;2023-06-22T12:22:08;31.60;87.50
5210;DHT22;2624;48.048;11.706;2023-06-22T12:27:10;31.60;90.20
5210;DHT22;2624;48.048;11.706;2023-06-22T12:32:12;31.40;90.90
5210;DHT22;2624;48.048;11.706;2023-06-22T12:37:15;30.60;91.90
5210;DHT22;2624;48.048;11.706;2023-06-22T12:42:17;29.70;93.20
5210;DHT22;2624;48.048;11.706;2023-06-22T12:47:19;31.10;91.40
5210;DHT22;2624;48.048;11.706;2023-06-22T12:52:22;31.00;91.50
5210;DHT22;2624;48.048;11.706;2023-06-22T12:57:24;31.80;90.30
5210;DHT22;2624;48.048;11.706;2023-06-22T13:02:26;31.10;91.10
5210;DHT22;2624;48.048;11.706;2023-06-22T13:07:29;31.20;90.40
5210;DHT22;2624;48.048;11.706;2023-06-22T13:12:30;32.00;88.80
5210;DHT22;2624;48.048;11.706;2023-06-22T13:17:32;32.20;86.50
5210;DHT22;2624;48.048;11.706;2023-06-22T13:22:36;31.90;90.00
5210;DHT22;2624;48.048;11.706;2023-06-22T13:27:40;31.80;90.50
5210;DHT22;2624;48.048;11.706;2023-06-22T13:32:42;32.30;89.30
5210;DHT22;2624;48.048;11.706;2023-06-22T13:37:45;31.30;90.80
5210;DHT22;2624;48.048;11.706;2023-06-22T13:42:47;32.50;88.30
5210;DHT22;2624;48.048;11.706;2023-06-22T13:47:49;32.20;90.10
5210;DHT22;2624;48.048;11.706;2023-06-22T13:52:52;32.40;85.60
5210;DHT22;2624;48.048;11.706;2023-06-22T13:57:54;32.70;88.10
5210;DHT22;2624;48.048;11.706;2023-06-22T14:02:55;32.50;88.30
5210;DHT22;2624;48.048;11.706;2023-06-22T14:07:58;32.40;90.00
5210;DHT22;2624;48.048;11.706;2023-06-22T14:13:00;32.50;87.60
5210;DHT22;2624;48.048;11.706;2023-06-22T14:18:02;32.10;90.10
5210;DHT22;2624;48.048;11.706;2023-06-22T14:23:05;32.20;89.50
5210;DHT22;2624;48.048;11.706;2023-06-22T14:28:07;32.10;88.70
5210;DHT22;2624;48.048;11.706;2023-06-22T14:33:09;31.70;90.40
5210;DHT22;2624;48.048;11.706;2023-06-22T14:38:12;31.80;90.50
5210;DHT22;2624;48.048;11.706;2023-06-22T14:43:13;32.30;85.70
5210;DHT22;2624;48.048;11.706;2023-06-22T14:48:15;31.90;89.70
5210;DHT22;2624;48.048;11.706;2023-06-22T14:53:18;32.00;84.20
5210;DHT22;2624;48.048;11.706;2023-06-22T14:58:20;31.90;84.50
5210;DHT22;2624;48.048;11.706;2023-06-22T15:03:22;32.00;88.80
5210;DHT22;2624;48.048;11.706;2023-06-22T15:08:29;31.90;86.70
5210;DHT22;2624;48.048;11.706;2023-06-22T15:13:31;31.50;90.30
5210;DHT22;2624;48.048;11.706;2023-06-22T15:18:35;32.50;82.40
5210;DHT22;2624;48.048;11.706;2023-06-22T15:23:38;32.50;78.40
5210;DHT22;2624;48.048;11.706;2023-06-22T15:28:40;32.30;81.70
5210;DHT22;2624;48.048;11.706;2023-06-22T15:33:42;32.50;79.80
5210;DHT22;2624;48.048;11.706;2023-06-22T15:38:45;32.10;85.60
5210;DHT22;2624;48.048;11.706;2023-06-22T15:43:47;32.00;84.40
5210;DHT22;2624;48.048;11.706;2023-06-22T15:48:49;32.30;82.60
5210;DHT22;2624;48.048;11.706;2023-06-22T15:53:52;32.20;85.40
5210;DHT22;2624;48.048;11.706;2023-06-22T15:58:54;32.10;83.00
5210;DHT22;2624;48.048;11.706;2023-06-22T16:03:57;32.00;85.80
5210;DHT22;2624;48.048;11.706;2023-06-22T16:09:00;32.00;87.10
5210;DHT22;2624;48.048;11.706;2023-06-22T16:14:02;31.90;88.40
5210;DHT22;2624;48.048;11.706;2023-06-22T16:19:03;31.60;88.90
5210;DHT22;2624;48.048;11.706;2023-06-22T16:24:07;31.60;86.60
5210;DHT22;2624;48.048;11.706;2023-06-22T16:29:11;31.60;88.50
5210;DHT22;2624;48.048;11.706;2023-06-22T16:34:12;31.40;89.10
5210;DHT22;2624;48.048;11.706;2023-06-22T16:39:16;31.30;87.60
5210;DHT22;2624;48.048;11.706;2023-06-22T16:44:18;31.30;88.50
5210;DHT22;2624;48.048;11.706;2023-06-22T16:49:20;31.30;88.40
5210;DHT22;2624;48.048;11.706;2023-06-22T16:54:23;31.20;87.80
5210;DHT22;2624;48.048;11.706;2023-06-22T16:59:25;31.30;87.00
5210;DHT22;2624;48.048;11.706;2023-06-22T17:04:29;31.10;88.00
5210;DHT22;2624;48.048;11.706;2023-06-22T17:09:33;31.00;88.90
5210;DHT22;2624;48.048;11.706;2023-06-22T17:14:39;30.90;89.20
5210;DHT22;2624;48.048;11.706;2023-06-22T17:19:41;31.10;90.10
5210;DHT22;2624;48.048;11.706;2023-06-22T17:24:44;29.30;99.40
5210;DHT22;2624;48.048;11.706;2023-06-22T17:29:47;23.90;99.90
5210;DHT22;2624;48.048;11.706;2023-06-22T17:35:04;23.50;99.90
5210;DHT22;2624;48.048;11.706;2023-06-22T17:40:13;23.90;99.90
5210;DHT22;2624;48.048;11.706;2023-06-22T17:45:16;23.30;99.90
5210;DHT22;2624;48.048;11.706;2023-06-22T17:50:22;23.30;99.90
5210;DHT22;2624;48.048;11.706;2023-06-22T17:55:25;23.60;99.90
5210;DHT22;2624;48.048;11.706;2023-06-22T18:00:28;24.10;99.90
5210;DHT22;2624;48.048;11.706;2023-06-22T18:05:31;24.60;99.90
5210;DHT22;2624;48.048;11.706;2023-06-22T18:10:35;24.80;99.90
5210;DHT22;2624;48.048;11.706;2023-06-22T18:15:38;23.40;99.90
5210;DHT22;2624;48.048;11.706;2023-06-22T18:20:40;24.60;99.90
5210;DHT22;2624;48.048;11.706;2023-06-22T18:25:45;26.30;99.90
5210;DHT22;2624;48.048;11.706;2023-06-22T18:30:47;27.50;99.90
5210;DHT22;2624;48.048;11.706;2023-06-22T18:35:50;27.00;99.90
5210;DHT22;2624;48.048;11.706;2023-06-22T18:40:55;26.60;99.90
5210;DHT22;2624;48.048;11.706;2023-06-22T18:46:30;26.50;99.90
5210;DHT22;2624;48.048;11.706;2023-06-22T18:51:49;25.80;99.90
5210;DHT22;2624;48.048;11.706;2023-06-22T18:56:57;25.70;99.90
5210;DHT22;2624;48.048;11.706;2023-06-22T19:02:00;26.70;99.90
5210;DHT22;2624;48.048;11.706;2023-06-22T19:07:02;26.00;99.90
5210;DHT22;2624;48.048;11.706;2023-06-22T19:12:21;26.00;99.90
5210;DHT22;2624;48.048;11.706;2023-06-22T19:17:23;24.90;99.90
5210;DHT22;2624;48.048;11.706;2023-06-22T19:22:43;25.00;99.90
5210;DHT22;2624;48.048;11.706;2023-06-22T19:27:47;25.30;99.90
5210;DHT22;2624;48.048;11.706;2023-06-22T19:32:51;25.60;99.90
5210;DHT22;2624;48.048;11.706;2023-06-22T19:37:53;25.60;99.90
5210;DHT22;2624;48.048;11.706;2023-06-22T19:42:56;25.60;99.90
5210;DHT22;2624;48.048;11.706;2023-06-22T19:47:58;25.50;99.90
5210;DHT22;2624;48.048;11.706;2023-06-22T19:52:59;25.40;99.90
5210;DHT22;2624;48.048;11.706;2023-06-22T19:58:02;25.50;99.90
5210;DHT22;2624;48.048;11.706;2023-06-22T20:03:08;25.30;99.90
5210;DHT22;2624;48.048;11.706;2023-06-22T20:08:10;26.00;99.90
5210;DHT22;2624;48.048;11.706;2023-06-22T20:13:15;26.00;99.90
5210;DHT22;2624;48.048;11.706;2023-06-22T20:18:17;25.90;99.90
5210;DHT22;2624;48.048;11.706;2023-06-22T20:23:21;25.80;99.90
5210;DHT22;2624;48.048;11.706;2023-06-22T20:28:25;25.90;99.90
5210;DHT22;2624;48.048;11.706;2023-06-22T20:33:27;25.90;99.90
5210;DHT22;2624;48.048;11.706;2023-06-22T20:38:29;25.70;99.90
5210;DHT22;2624;48.048;11.706;2023-06-22T20:43:34;25.80;99.90
5210;DHT22;2624;48.048;11.706;2023-06-22T20:48:36;25.90;99.90
5210;DHT22;2624;48.048;11.706;2023-06-22T20:53:38;25.60;99.90
5210;DHT22;2624;48.048;11.706;2023-06-22T20:58:41;25.40;99.90
5210;DHT22;2624;48.048;11.706;2023-06-22T21:03:42;25.30;99.90
5210;DHT22;2624;48.048;11.706;2023-06-22T21:08:44;25.00;99.90
5210;DHT22;2624;48.048;11.706;2023-06-22T21:13:47;25.10;99.90
5210;DHT22;2624;48.048;11.706;2023-06-22T21:18:49;24.70;99.90
5210;DHT22;2624;48.048;11.706;2023-06-22T21:23:51;24.90;99.90
5210;DHT22;2624;48.048;11.706;2023-06-22T21:28:54;24.80;99.90
5210;DHT22;2624;48.048;11.706;2023-06-22T21:33:56;24.50;99.90
5210;DHT22;2624;48.048;11.706;2023-06-22T21:38:58;24.30;99.90
5210;DHT22;2624;48.048;11.706;2023-06-22T21:44:01;23.80;99.90
5210;DHT22;2624;48.048;11.706;2023-06-22T21:49:03;24.30;99.90
5210;DHT22;2624;48.048;11.706;2023-06-22T21:54:04;24.70;99.90
5210;DHT22;2624;48.048;11.706;2023-06-22T21:59:07;24.20;99.90
5210;DHT22;2624;48.048;11.706;2023-06-22T22:04:09;24.30;99.90
5210;DHT22;2624;48.048;11.706;2023-06-22T22:09:11;23.70;99.90
5210;DHT22;2624;48.048;11.706;2023-06-22T22:14:14;22.80;99.90
5210;DHT22;2624;48.048;11.706;2023-06-22T22:19:17;22.40;99.90
5210;DHT22;2624;48.048;11.706;2023-06-22T22:24:20;22.30;99.90
5210;DHT22;2624;48.048;11.706;2023-06-22T22:29:23;22.10;99.90
5210;DHT22;2624;48.048;11.706;2023-06-22T22:34:25;22.00;99.90
5210;DHT22;2624;48.048;11.706;2023-06-22T22:39:30;21.80;99.90
5210;DHT22;2624;48.048;11.706;2023-06-22T22:44:34;22.00;99.90
5210;DHT22;2624;48.048;11.706;2023-06-22T22:49:36;21.70;99.90
5210;DHT22;2624;48.048;11.706;2023-06-22T22:54:38;22.30;99.90
5210;DHT22;2624;48.048;11.706;2023-06-22T22:59:44;22.00;99.90
5210;DHT22;2624;48.048;11.706;2023-06-22T23:04:54;21.60;99.90
5210;DHT22;2624;48.048;11.706;2023-06-22T23:09:56;22.10;99.90
5210;DHT22;2624;48.048;11.706;2023-06-22T23:14:59;21.80;99.90
5210;DHT22;2624;48.048;11.706;2023-06-22T23:20:01;22.00;99.90
5210;DHT22;2624;48.048;11.706;2023-06-22T23:25:05;21.90;99.90
5210;DHT22;2624;48.048;11.706;2023-06-22T23:30:10;22.40;99.90
5210;DHT22;2624;48.048;11.706;2023-06-22T23:35:12;22.50;99.90
5210;DHT22;2624;48.048;11.706;2023-06-22T23:40:14;22.40;99.90
5210;DHT22;2624;48.048;11.706;2023-06-22T23:45:19;22.40;99.90
5210;DHT22;2624;48.048;11.706;2023-06-22T23:50:22;22.20;99.90
5210;DHT22;2624;48.048;11.706;2023-06-22T23:55:24;22.10;99.90
